Time;durP1;ratioP1;P1;durP2;ratioP2;P2;SDS_P1;SDS_P2;PMS_P1;PMS_P2;Temp;Humidity;BMP_temperature;BMP_pressure;BME280_temperature;BME280_humidity;BME280_pressure;Samples;Min_cycle;Max_cycle;Signal;HPM_P1;HPM_P2
2022/07/16 00:03:23;;;;;;;1.63;1.00;;;;;;;18.27;49.82;99121.16;5001576;28;20472;-62
2022/07/16 00:06:08;;;;;;;1.80;0.90;;;;;;;18.30;49.61;99117.38;4997640;28;20404;-62
2022/07/16 00:08:53;;;;;;;1.67;1.08;;;;;;;18.28;49.33;99122.00;5011326;28;20034;-62
2022/07/16 00:11:38;;;;;;;1.02;0.70;;;;;;;18.29;48.55;99115.72;5012372;28;20046;-65
2022/07/16 00:14:24;;;;;;;1.50;1.00;;;;;;;18.32;49.48;99121.56;5012567;28;20205;-62
2022/07/16 00:17:09;;;;;;;3.60;1.02;;;;;;;18.38;47.98;99112.16;5012367;28;20029;-62
2022/07/16 00:19:53;;;;;;;1.55;0.90;;;;;;;18.46;48.34;99114.06;5011789;28;20034;-62
2022/07/16 00:22:38;;;;;;;1.52;1.05;;;;;;;18.48;47.55;99120.09;5011427;28;20041;-63
2022/07/16 00:25:23;;;;;;;2.60;1.10;;;;;;;18.39;47.07;99111.22;5010777;28;21595;-63
2022/07/16 00:28:08;;;;;;;1.10;0.75;;;;;;;18.38;47.48;99114.00;5020000;28;20379;-63
2022/07/16 00:30:54;;;;;;;2.40;0.95;;;;;;;18.38;48.27;99114.00;5027738;28;20057;-62
2022/07/16 00:33:39;;;;;;;2.15;1.00;;;;;;;18.36;47.66;99113.31;5011554;28;20049;-62
2022/07/16 00:36:24;;;;;;;1.95;1.10;;;;;;;18.30;47.19;99104.13;5011176;28;20049;-62
2022/07/16 00:39:10;;;;;;;1.92;1.00;;;;;;;18.33;47.07;99109.13;5010565;28;20042;-62
2022/07/16 00:41:55;;;;;;;1.67;1.17;;;;;;;18.29;48.24;99105.97;5011339;28;20045;-63
2022/07/16 00:44:40;;;;;;;1.77;0.90;;;;;;;18.29;46.56;99108.59;4999775;28;20038;-62
2022/07/16 00:47:25;;;;;;;2.17;0.95;;;;;;;18.22;46.92;99110.16;4999958;28;20075;-64
2022/07/16 00:50:10;;;;;;;1.17;0.98;;;;;;;18.25;47.33;99115.16;4991152;28;20046;-62
2022/07/16 00:52:55;;;;;;;1.17;0.63;;;;;;;18.22;48.05;99100.41;5011973;28;20092;-62
2022/07/16 00:55:40;;;;;;;1.83;0.93;;;;;;;18.21;46.43;99119.09;5009528;28;20042;-63
2022/07/16 00:58:25;;;;;;;1.27;1.02;;;;;;;18.26;46.57;99119.50;5007759;28;20044;-62
2022/07/16 01:01:11;;;;;;;2.45;1.00;;;;;;;18.25;47.72;99109.06;5023885;28;20108;-62
2022/07/16 01:03:55;;;;;;;1.40;0.85;;;;;;;18.24;47.65;99113.50;5011303;28;20037;-62
2022/07/16 01:06:40;;;;;;;1.33;0.80;;;;;;;18.25;48.34;99119.66;5010761;28;20351;-62
2022/07/16 01:09:26;;;;;;;1.20;0.80;;;;;;;18.30;48.17;99128.81;5011456;28;20050;-62
2022/07/16 01:12:11;;;;;;;2.20;1.05;;;;;;;18.33;48.42;99117.94;4998648;28;20046;-61
2022/07/16 01:15:00;;;;;;;1.45;0.93;;;;;;;18.22;48.09;99124.25;5010841;28;20482;-61
2022/07/16 01:17:45;;;;;;;1.63;0.90;;;;;;;18.19;47.36;99127.22;5012065;28;20070;-61
2022/07/16 01:20:29;;;;;;;1.90;1.00;;;;;;;18.14;47.77;99124.16;5024347;28;20038;-62
2022/07/16 01:23:22;;;;;;;2.53;0.98;;;;;;;18.19;48.50;99123.72;5023023;28;20482;-62
2022/07/16 01:26:07;;;;;;;1.67;0.98;;;;;;;18.07;48.02;99113.25;5000345;28;20085;-61
2022/07/16 01:28:51;;;;;;;1.67;0.93;;;;;;;18.07;48.46;99117.72;5011106;28;20092;-63
2022/07/16 01:31:36;;;;;;;2.13;0.90;;;;;;;18.12;47.77;99114.63;5010959;28;20050;-62
2022/07/16 01:34:26;;;;;;;1.90;0.80;;;;;;;18.11;48.81;99116.47;5011281;28;20100;-62
2022/07/16 01:37:11;;;;;;;1.60;1.10;;;;;;;18.06;48.91;99114.25;5011848;28;20042;-62
2022/07/16 01:39:56;;;;;;;2.85;1.08;;;;;;;17.95;48.49;99109.94;5010353;28;20050;-62
2022/07/16 01:42:43;;;;;;;2.20;1.00;;;;;;;17.75;49.98;99116.28;5011394;28;20042;-61
2022/07/16 01:45:28;;;;;;;1.70;1.00;;;;;;;17.71;49.11;99099.84;5011213;28;20042;-61
2022/07/16 01:48:14;;;;;;;1.63;0.98;;;;;;;17.65;49.97;99103.91;5024265;28;20045;-62
2022/07/16 01:50:59;;;;;;;1.52;0.80;;;;;;;17.60;50.91;99103.50;5023476;28;20093;-62
2022/07/16 01:53:43;;;;;;;1.67;0.90;;;;;;;17.42;50.29;99104.22;5009802;28;20348;-61
2022/07/16 01:56:28;;;;;;;3.45;1.38;;;;;;;17.32;51.05;99098.94;5009608;28;20056;-62
2022/07/16 01:59:13;;;;;;;3.72;1.98;;;;;;;17.34;52.21;99097.00;5010472;28;20099;-61
2022/07/16 02:01:58;;;;;;;2.03;0.95;;;;;;;17.38;51.95;99096.72;5011428;28;20038;-62
2022/07/16 02:04:43;;;;;;;2.30;1.15;;;;;;;17.21;50.83;99088.50;5015092;28;20382;-62
2022/07/16 02:07:27;;;;;;;1.25;1.02;;;;;;;17.17;51.48;99090.59;5014850;28;20422;-63
2022/07/16 02:10:12;;;;;;;3.92;1.48;;;;;;;17.06;52.91;99091.53;5010094;28;20068;-63
2022/07/16 02:12:57;;;;;;;1.48;0.90;;;;;;;17.02;53.54;99087.53;5012217;28;20109;-60
2022/07/16 02:15:41;;;;;;;2.70;1.13;;;;;;;17.09;52.95;99087.81;5017701;28;20049;-62
2022/07/16 02:18:26;;;;;;;1.67;1.05;;;;;;;17.07;52.28;99087.91;5019155;28;20095;-61
2022/07/16 02:21:11;;;;;;;1.70;1.00;;;;;;;17.04;51.95;99082.09;5016072;28;20038;-62
2022/07/16 02:23:55;;;;;;;1.70;1.20;;;;;;;17.04;51.27;99082.09;5001785;28;20603;-63
2022/07/16 02:26:40;;;;;;;2.33;0.93;;;;;;;17.20;52.16;99079.72;5014035;28;20060;-62
2022/07/16 02:29:24;;;;;;;2.75;0.90;;;;;;;17.27;51.85;99069.41;5014276;28;20037;-62
2022/07/16 02:32:09;;;;;;;1.27;0.82;;;;;;;17.31;51.70;99070.81;5012626;28;20045;-61
2022/07/16 02:34:55;;;;;;;1.60;0.77;;;;;;;17.32;51.63;99071.63;5013268;28;20459;-62
2022/07/16 02:37:39;;;;;;;1.40;1.10;;;;;;;17.40;51.06;99068.28;5013672;28;20042;-62
2022/07/16 02:40:25;;;;;;;1.88;1.00;;;;;;;17.45;49.58;99068.69;4986495;28;20751;-61
2022/07/16 02:43:11;;;;;;;2.55;0.98;;;;;;;17.53;50.67;99067.97;5027382;28;20622;-62
2022/07/16 02:45:56;;;;;;;1.85;0.80;;;;;;;17.47;50.03;99061.44;5022854;28;20052;-62
2022/07/16 02:48:41;;;;;;;1.25;0.73;;;;;;;17.49;49.77;99070.06;5014404;28;20407;-62
2022/07/16 02:51:25;;;;;;;2.50;0.90;;;;;;;17.51;49.62;99067.28;5026811;28;20478;-62
2022/07/16 02:54:10;;;;;;;1.58;1.00;;;;;;;17.42;49.17;99067.16;5012951;28;20040;-63
2022/07/16 02:56:55;;;;;;;1.67;0.85;;;;;;;17.43;49.63;99068.81;4999294;28;20041;-61
2022/07/16 02:59:40;;;;;;;2.38;0.90;;;;;;;17.48;48.18;99071.88;5013012;28;20041;-62
2022/07/16 03:02:25;;;;;;;2.28;0.82;;;;;;;17.54;47.89;99073.13;5012368;28;20040;-62
2022/07/16 03:05:11;;;;;;;1.50;1.17;;;;;;;17.56;48.63;99067.69;5012970;28;20137;-63
2022/07/16 03:07:55;;;;;;;1.52;0.98;;;;;;;17.66;49.69;99067.66;5013242;28;20034;-63
2022/07/16 03:10:40;;;;;;;1.48;1.05;;;;;;;17.58;48.31;99073.66;5014029;28;20042;-62
2022/07/16 03:13:24;;;;;;;2.25;0.70;;;;;;;17.57;48.05;99067.56;5001202;28;20076;-63
2022/07/16 03:16:09;;;;;;;2.10;0.80;;;;;;;17.56;47.11;99062.41;5011784;28;20050;-63
2022/07/16 03:18:54;;;;;;;2.42;0.80;;;;;;;17.56;46.82;99067.69;5012711;28;20046;-63
2022/07/16 03:21:38;;;;;;;1.00;0.70;;;;;;;17.60;47.68;99063.78;5012361;28;20042;-63
2022/07/16 03:24:23;;;;;;;2.05;0.82;;;;;;;17.65;48.35;99060.69;5013673;28;20037;-62
2022/07/16 03:27:08;;;;;;;1.58;0.85;;;;;;;17.67;46.91;99058.72;5012734;28;20173;-63
2022/07/16 03:29:53;;;;;;;1.02;0.70;;;;;;;17.71;49.16;99062.75;5012427;28;20046;-63
2022/07/16 03:32:37;;;;;;;2.22;0.95;;;;;;;17.55;48.34;99066.00;5013353;28;20050;-62
2022/07/16 03:35:22;;;;;;;1.23;0.82;;;;;;;17.43;49.08;99066.16;5012454;28;20115;-62
2022/07/16 03:41:10;;;;;;;1.60;0.82;;;;;;;17.30;49.12;99074.41;5012205;28;20484;-61
2022/07/16 03:43:55;;;;;;;1.40;0.77;;;;;;;17.30;49.26;99071.75;5013319;28;20042;-61
2022/07/16 03:46:40;;;;;;;1.73;1.00;;;;;;;17.33;49.43;99075.97;5012323;28;20041;-63
2022/07/16 03:49:25;;;;;;;2.38;0.80;;;;;;;17.33;48.49;99081.25;5013274;28;20048;-61
2022/07/16 03:52:09;;;;;;;1.85;0.90;;;;;;;17.35;49.36;99085.41;4997437;28;20088;-61
2022/07/16 03:54:54;;;;;;;3.90;0.98;;;;;;;17.27;48.79;99081.81;4997296;28;20092;-61
2022/07/16 03:57:39;;;;;;;3.20;1.02;;;;;;;17.21;47.01;99081.41;5023972;28;20063;-62
2022/07/16 04:00:24;;;;;;;1.80;0.95;;;;;;;17.17;49.40;99082.66;5012614;28;20049;-63
2022/07/16 04:03:09;;;;;;;1.40;0.85;;;;;;;17.07;49.39;99073.88;5012013;28;20060;-61
2022/07/16 04:05:54;;;;;;;1.08;0.82;;;;;;;17.22;48.11;99083.06;5012040;28;20124;-62
2022/07/16 04:08:39;;;;;;;1.65;0.77;;;;;;;17.25;48.53;99079.28;5013235;28;20042;-62
2022/07/16 04:11:24;;;;;;;1.45;0.90;;;;;;;17.42;47.89;99075.09;5012988;28;20466;-61
2022/07/16 04:14:12;;;;;;;1.65;1.08;;;;;;;17.50;47.83;99077.03;4973349;28;20124;-62
2022/07/16 04:16:56;;;;;;;1.27;0.85;;;;;;;17.58;47.75;99078.97;5012730;28;20040;-61
2022/07/16 04:19:41;;;;;;;1.83;0.93;;;;;;;17.36;46.74;99075.69;5009959;28;20037;-62
2022/07/16 04:22:26;;;;;;;1.48;1.00;;;;;;;17.23;48.66;99078.63;5015673;28;20137;-62
2022/07/16 04:25:14;;;;;;;1.75;0.63;;;;;;;17.48;49.64;99079.81;5016517;28;20045;-62
2022/07/16 04:27:59;;;;;;;2.78;1.00;;;;;;;17.65;49.39;99072.13;5024564;28;20049;-62
2022/07/16 04:30:44;;;;;;;1.30;0.70;;;;;;;17.73;48.90;99074.03;5014652;28;20050;-61
2022/07/16 04:33:28;;;;;;;1.90;1.00;;;;;;;17.93;50.11;99071.34;5000705;28;20049;-62
2022/07/16 04:36:13;;;;;;;1.42;0.80;;;;;;;18.08;49.13;99075.16;4994775;28;20042;-62
2022/07/16 04:38:58;;;;;;;1.70;0.90;;;;;;;18.16;49.48;99066.53;5010600;28;20100;-62
2022/07/16 04:41:43;;;;;;;1.25;0.95;;;;;;;18.13;49.34;99069.47;5011315;28;20064;-62
2022/07/16 04:44:27;;;;;;;2.22;0.88;;;;;;;18.38;50.23;99075.03;5025085;28;20046;-62
2022/07/16 04:47:13;;;;;;;2.08;0.75;;;;;;;18.44;50.54;99076.28;5006086;28;20057;-62
2022/07/16 04:49:57;;;;;;;2.17;1.05;;;;;;;18.44;50.18;99071.78;5005596;28;20438;-61
2022/07/16 04:52:42;;;;;;;1.83;0.98;;;;;;;18.61;50.78;99071.97;5012172;28;20100;-62
2022/07/16 04:55:27;;;;;;;2.20;0.93;;;;;;;18.69;51.03;99072.06;5023608;28;20041;-64
2022/07/16 04:58:11;;;;;;;0.70;0.55;;;;;;;18.78;51.28;99080.94;5011233;28;20423;-62
2022/07/16 05:00:56;;;;;;;1.27;0.80;;;;;;;18.74;50.70;99082.22;5010579;28;20038;-61
2022/07/16 05:03:41;;;;;;;1.33;0.70;;;;;;;18.63;50.83;99085.09;5010722;28;20042;-63
2022/07/16 05:06:26;;;;;;;1.45;0.75;;;;;;;18.63;51.81;99082.44;4997947;28;20050;-63
2022/07/16 05:09:11;;;;;;;1.65;0.70;;;;;;;18.97;52.33;99087.06;4978020;28;20046;-62
2022/07/16 05:11:56;;;;;;;2.38;0.90;;;;;;;18.93;51.39;99083.06;5011305;28;20061;-63
2022/07/16 05:14:41;;;;;;;2.17;0.80;;;;;;;19.12;51.04;99083.91;5010055;28;20378;-62
2022/07/16 05:17:26;;;;;;;1.20;0.85;;;;;;;19.13;50.71;99082.94;4995787;28;20042;-62
2022/07/16 05:20:11;;;;;;;1.00;0.80;;;;;;;19.30;52.34;99092.72;5011875;28;20038;-62
2022/07/16 05:22:57;;;;;;;1.55;0.90;;;;;;;19.53;52.32;99091.38;5015925;28;20041;-63
2022/07/16 05:25:42;;;;;;;1.58;1.00;;;;;;;19.68;51.49;99097.75;5005209;28;20429;-62
2022/07/16 05:28:26;;;;;;;1.73;0.90;;;;;;;20.00;50.70;99102.59;5008602;28;20038;-61
2022/07/16 05:31:11;;;;;;;1.88;1.08;;;;;;;20.25;51.48;99097.44;5011476;28;20062;-63
2022/07/16 05:33:56;;;;;;;0.93;0.70;;;;;;;19.95;52.00;99105.72;5010543;28;20092;-63
2022/07/16 05:36:40;;;;;;;3.00;0.90;;;;;;;19.78;51.40;99107.47;4985855;28;20095;-62
2022/07/16 05:39:25;;;;;;;2.80;1.05;;;;;;;19.75;53.52;99108.59;5010416;28;20062;-62
2022/07/16 05:42:10;;;;;;;1.48;0.80;;;;;;;19.84;53.30;99098.03;5017770;28;20038;-61
2022/07/16 05:44:55;;;;;;;1.63;0.80;;;;;;;19.78;53.77;99112.78;5010838;28;20046;-62
2022/07/16 05:47:40;;;;;;;1.63;1.05;;;;;;;19.78;53.60;99110.13;5011596;28;20045;-62
2022/07/16 05:50:25;;;;;;;2.85;1.02;;;;;;;20.00;53.17;99116.72;5011148;28;20034;-62
2022/07/16 05:53:09;;;;;;;1.38;0.90;;;;;;;20.02;53.32;99120.06;5014984;28;20054;-62
2022/07/16 05:55:54;;;;;;;2.63;1.20;;;;;;;20.11;52.86;99118.31;5012897;28;20052;-62
2022/07/16 05:58:39;;;;;;;2.20;0.95;;;;;;;20.38;51.85;99123.56;5000292;28;20516;-62
2022/07/16 06:01:23;;;;;;;2.08;1.08;;;;;;;20.65;51.34;99122.50;5002738;28;20058;-62
2022/07/16 06:04:08;;;;;;;1.90;1.13;;;;;;;20.82;51.31;99122.53;4999677;28;20129;-61
2022/07/16 06:06:55;;;;;;;2.33;1.10;;;;;;;21.31;51.42;99126.28;5015061;28;20494;-59
2022/07/16 06:09:39;;;;;;;1.98;0.77;;;;;;;21.40;50.96;99125.28;5014170;28;20041;-62
2022/07/16 06:12:24;;;;;;;2.45;1.10;;;;;;;21.60;49.38;99126.75;5014709;28;20433;-61
2022/07/16 06:15:10;;;;;;;1.50;1.10;;;;;;;21.81;48.54;99120.06;5009267;28;20046;-61
2022/07/16 06:17:55;;;;;;;2.35;1.02;;;;;;;21.86;47.43;99120.41;5014628;28;20458;-61
2022/07/16 06:20:40;;;;;;;2.42;1.08;;;;;;;21.79;47.22;99117.56;5013053;28;20498;-61
2022/07/16 06:23:25;;;;;;;1.50;1.00;;;;;;;22.37;48.05;99121.91;5000568;28;20112;-63
2022/07/16 06:26:12;;;;;;;1.38;1.10;;;;;;;22.87;41.14;99124.31;5014342;28;20042;-62
2022/07/16 06:29:13;;;;;;;1.75;1.10;;;;;;;22.71;42.37;99115.41;5013294;28;20092;-61
2022/07/16 06:31:58;;;;;;;4.45;1.30;;;;;;;23.22;44.69;99121.25;5000908;28;20050;-60
2022/07/16 06:34:43;;;;;;;2.47;0.90;;;;;;;23.14;42.76;99112.28;4999340;28;20034;-62
2022/07/16 06:37:28;;;;;;;1.85;1.10;;;;;;;22.91;43.04;99119.47;5013489;28;20034;-60
2022/07/16 06:40:12;;;;;;;1.63;1.00;;;;;;;23.19;41.53;99122.41;5026700;28;20041;-61
2022/07/16 06:42:57;;;;;;;1.67;0.93;;;;;;;23.54;41.38;99126.50;5026718;28;20057;-61
2022/07/16 06:45:43;;;;;;;1.17;0.70;;;;;;;23.80;39.58;99128.75;4997615;28;20120;-61
2022/07/16 06:48:28;;;;;;;2.80;1.02;;;;;;;23.27;39.35;99126.88;5013897;28;21273;-61
2022/07/16 06:51:13;;;;;;;1.52;0.88;;;;;;;23.56;40.71;99128.00;5027094;28;20072;-61
2022/07/16 06:53:58;;;;;;;2.28;0.85;;;;;;;23.94;41.21;99129.78;4999601;28;20122;-61
2022/07/16 06:56:42;;;;;;;1.63;0.90;;;;;;;24.36;40.27;99129.34;5013859;28;20038;-61
2022/07/16 06:59:28;;;;;;;1.92;0.95;;;;;;;23.58;40.52;99130.50;5013328;28;20111;-62
2022/07/16 07:02:13;;;;;;;2.03;0.95;;;;;;;24.22;38.54;99123.81;5012768;28;20042;-62
2022/07/16 07:05:01;;;;;;;2.92;0.80;;;;;;;23.87;40.99;99126.19;5015112;28;20535;-63
2022/07/16 07:07:45;;;;;;;1.40;0.90;;;;;;;23.84;42.21;99122.03;5013476;28;20092;-61
2022/07/16 07:10:30;;;;;;;2.13;0.95;;;;;;;23.55;40.76;99120.16;5026147;28;20776;-63
2022/07/16 07:13:15;;;;;;;3.17;1.45;;;;;;;24.25;40.06;99117.28;5000544;28;20419;-62
2022/07/16 07:15:59;;;;;;;2.17;1.00;;;;;;;24.45;38.89;99119.34;5008551;28;20099;-61
2022/07/16 07:18:44;;;;;;;2.78;1.00;;;;;;;24.66;38.35;99112.38;5011939;28;20520;-61
2022/07/16 07:21:29;;;;;;;1.77;0.90;;;;;;;24.72;37.14;99115.13;5012096;28;20049;-62
2022/07/16 07:24:16;;;;;;;1.77;0.88;;;;;;;24.79;38.87;99115.19;5012520;28;20038;-60
2022/07/16 07:27:01;;;;;;;2.92;1.10;;;;;;;24.76;35.63;99117.44;5012551;28;20042;-61
2022/07/16 07:29:46;;;;;;;2.83;1.10;;;;;;;25.03;39.01;99115.03;4998371;28;20363;-60
2022/07/16 07:32:31;;;;;;;2.50;1.08;;;;;;;25.46;38.24;99103.47;5012678;28;20382;-61
2022/07/16 07:35:15;;;;;;;3.15;1.00;;;;;;;26.11;35.74;99107.78;5013301;28;20042;-61
2022/07/16 07:38:01;;;;;;;3.72;1.08;;;;;;;25.22;35.55;99109.03;5011441;28;20037;-61
2022/07/16 07:40:46;;;;;;;1.77;0.85;;;;;;;25.40;34.33;99104.22;5022186;28;20038;-61
2022/07/16 07:43:32;;;;;;;1.90;0.80;;;;;;;25.16;35.49;99108.97;5026912;28;20066;-61
2022/07/16 07:46:16;;;;;;;0.90;0.52;;;;;;;25.45;35.70;99104.47;5012698;28;20037;-62
2022/07/16 07:49:02;;;;;;;2.80;1.00;;;;;;;26.07;33.30;99101.16;5011880;28;20045;-61
2022/07/16 07:51:46;;;;;;;2.22;0.70;;;;;;;25.76;36.54;99105.94;5011108;28;20050;-61
2022/07/16 07:54:32;;;;;;;2.40;0.90;;;;;;;26.18;32.94;99105.97;5012660;28;20038;-61
2022/07/16 07:57:16;;;;;;;1.52;0.77;;;;;;;27.09;35.62;99104.19;5012653;28;20034;-61
2022/07/16 08:00:02;;;;;;;2.85;0.80;;;;;;;26.76;31.27;99109.28;5012481;28;20050;-61
2022/07/16 08:02:57;;;;;;;1.73;0.90;;;;;;;26.47;32.15;99103.22;5012439;28;20041;-61
2022/07/16 08:05:42;;;;;;;2.88;0.85;;;;;;;26.62;34.72;99103.03;5011004;28;20064;-62
2022/07/16 08:08:26;;;;;;;1.15;0.70;;;;;;;26.96;33.14;99105.81;5012385;28;20048;-62
2022/07/16 08:11:11;;;;;;;2.35;1.02;;;;;;;27.15;31.60;99100.66;5010993;28;20056;-62
2022/07/16 08:13:55;;;;;;;1.80;0.75;;;;;;;28.03;31.10;99100.56;5004572;28;20044;-63
2022/07/16 08:16:43;;;;;;;1.45;0.60;;;;;;;27.42;32.65;99096.09;4999832;28;20098;-62
2022/07/16 08:19:28;;;;;;;4.07;1.00;;;;;;;27.07;30.32;99099.00;5011470;28;20034;-62
2022/07/16 08:22:12;;;;;;;1.73;0.80;;;;;;;27.44;32.48;99106.66;5012119;28;20084;-62
2022/07/16 08:28:04;;;;;;;2.28;0.70;;;;;;;27.72;32.50;99088.66;5011748;28;20053;-62
2022/07/16 08:30:48;;;;;;;2.13;0.98;;;;;;;27.14;31.35;99085.59;5024333;28;20066;-62
2022/07/16 08:33:33;;;;;;;1.25;0.82;;;;;;;27.60;32.98;99096.50;5024166;28;20041;-62
2022/07/16 08:36:18;;;;;;;2.55;1.00;;;;;;;28.10;31.31;99082.53;5024998;28;20046;-62
2022/07/16 08:39:03;;;;;;;1.80;0.90;;;;;;;28.76;34.87;99084.28;5011005;28;20532;-62
2022/07/16 08:41:48;;;;;;;2.22;1.00;;;;;;;28.03;28.77;99089.81;5010664;28;20136;-63
2022/07/16 08:44:33;;;;;;;1.35;0.70;;;;;;;27.85;29.29;99085.09;5012243;28;20041;-64
2022/07/16 08:47:19;;;;;;;4.55;1.00;;;;;;;28.31;30.07;99083.28;5010793;28;20042;-62
2022/07/16 08:50:08;;;;;;;2.75;1.10;;;;;;;28.21;31.13;99082.91;5010678;28;20506;-62
2022/07/16 08:52:54;;;;;;;1.00;0.60;;;;;;;29.47;30.90;99072.56;4996786;28;20528;-63
2022/07/16 08:55:41;;;;;;;3.47;0.70;;;;;;;29.25;30.81;99063.00;5011145;28;20046;-63
2022/07/16 08:58:30;;;;;;;1.35;0.80;;;;;;;29.16;31.98;99058.94;5011121;28;20037;-63
2022/07/16 09:01:15;;;;;;;2.95;0.88;;;;;;;28.32;34.45;99074.19;5010172;28;20038;-62
2022/07/16 09:04:01;;;;;;;2.33;0.93;;;;;;;27.62;33.96;99064.84;5010481;28;20064;-62
2022/07/16 09:06:46;;;;;;;2.58;0.60;;;;;;;27.63;31.93;99061.94;5010813;28;20033;-63
2022/07/16 09:09:30;;;;;;;1.77;0.80;;;;;;;28.64;30.86;99059.91;5020837;28;20034;-64
2022/07/16 09:12:58;;;;;;;2.05;0.80;;;;;;;28.12;31.13;99055.41;4997222;28;20045;-62
2022/07/16 09:15:43;;;;;;;1.55;0.75;;;;;;;28.46;29.22;99058.78;5022419;28;20045;-63
2022/07/16 09:18:28;;;;;;;3.30;0.90;;;;;;;29.58;29.86;99052.97;5002869;28;20037;-63
2022/07/16 09:21:13;;;;;;;1.80;0.80;;;;;;;29.68;32.22;99054.31;5013775;28;20050;-64
2022/07/16 09:23:58;;;;;;;2.10;0.90;;;;;;;31.40;28.98;99043.41;5011487;28;20038;-63
2022/07/16 09:26:43;;;;;;;1.88;0.90;;;;;;;31.35;25.48;99040.53;5012290;28;20040;-63
2022/07/16 09:29:28;;;;;;;4.45;1.42;;;;;;;31.05;28.48;99044.16;5014437;28;20052;-64
2022/07/16 09:32:28;;;;;;;3.28;0.77;;;;;;;31.05;28.78;99042.31;5008435;28;20042;-64
2022/07/16 09:35:14;;;;;;;0.90;0.75;;;;;;;29.96;29.80;99048.38;5014520;28;20042;-63
2022/07/16 09:38:00;;;;;;;2.13;0.68;;;;;;;30.09;30.80;99039.28;5013764;28;20057;-63
2022/07/16 09:40:47;;;;;;;1.60;0.88;;;;;;;30.06;31.40;99038.91;5015160;28;20471;-63
2022/07/16 09:43:32;;;;;;;2.30;1.05;;;;;;;29.48;32.22;99028.31;5014577;28;20034;-63
2022/07/16 09:46:20;;;;;;;3.47;1.05;;;;;;;30.15;30.91;99036.72;5013981;28;20042;-63
2022/07/16 09:49:05;;;;;;;1.13;0.75;;;;;;;30.22;31.20;99029.38;5015185;28;20470;-63
2022/07/16 09:51:50;;;;;;;2.50;0.82;;;;;;;29.75;30.42;99038.88;5013144;28;20552;-64
2022/07/16 09:54:37;;;;;;;2.90;1.13;;;;;;;31.16;29.76;99029.84;5014648;28;20109;-64
2022/07/16 09:57:25;;;;;;;3.55;0.90;;;;;;;30.66;30.97;99031.88;5027031;28;20053;-63
2022/07/16 10:00:10;;;;;;;2.65;0.90;;;;;;;31.18;33.14;99041.25;5024656;28;20041;-64
2022/07/16 10:02:58;;;;;;;2.00;1.00;;;;;;;30.49;30.38;99034.41;4999514;28;20038;-64
2022/07/16 10:05:43;;;;;;;2.38;1.00;;;;;;;30.76;30.89;99030.47;5014865;28;20030;-64
2022/07/16 10:08:28;;;;;;;2.75;1.38;;;;;;;31.49;27.47;99013.25;5010407;28;20041;-64
2022/07/16 10:11:13;;;;;;;2.33;1.17;;;;;;;31.71;28.33;99024.28;5026824;28;20038;-64
2022/07/16 10:13:58;;;;;;;1.50;0.75;;;;;;;30.89;30.84;99016.78;5014452;28;20049;-63
2022/07/16 10:16:47;;;;;;;1.95;0.85;;;;;;;31.78;29.70;99013.31;5002643;28;20029;-64
2022/07/16 10:19:36;;;;;;;2.20;1.08;;;;;;;31.41;30.20;99009.03;5014564;28;20140;-63
2022/07/16 10:22:35;;;;;;;3.38;1.15;;;;;;;31.10;30.08;99012.69;5027946;28;20099;-63
2022/07/16 10:25:26;;;;;;;2.88;0.93;;;;;;;30.82;27.96;99021.47;5001862;28;20054;-63
2022/07/16 10:28:40;;;;;;;3.90;0.95;;;;;;;30.91;27.63;99016.53;5014692;28;20038;-64
2022/07/16 10:34:54;;;;;;;1.65;0.90;;;;;;;30.88;27.61;99012.41;5012060;28;20645;-64
2022/07/16 10:37:39;;;;;;;1.80;1.00;;;;;;;31.46;30.81;99003.72;5011881;28;20111;-64
2022/07/16 10:40:24;;;;;;;1.80;0.77;;;;;;;31.02;29.79;99006.78;5012678;28;20044;-63
2022/07/16 10:43:18;;;;;;;1.83;0.80;;;;;;;31.11;29.79;99005.38;5012332;28;20075;-65
2022/07/16 10:46:06;;;;;;;1.85;0.80;;;;;;;31.10;29.82;98998.31;5012092;28;20033;-62
2022/07/16 10:48:51;;;;;;;5.35;0.95;;;;;;;30.93;29.71;99022.56;5026086;28;20042;-63
2022/07/16 10:52:16;;;;;;;1.67;0.80;;;;;;;31.44;29.53;99000.44;5025568;28;20068;-64
2022/07/16 10:55:02;;;;;;;1.88;0.98;;;;;;;29.75;29.86;99009.19;5018066;28;20056;-63
2022/07/16 10:57:47;;;;;;;1.73;0.90;;;;;;;30.59;28.39;99002.25;5011341;28;20464;-63
2022/07/16 11:00:32;;;;;;;3.63;1.20;;;;;;;31.01;28.48;98999.75;5024921;28;20442;-63
2022/07/16 11:03:17;;;;;;;3.25;1.02;;;;;;;31.03;29.53;98995.72;5000884;28;20382;-63
2022/07/16 11:06:03;;;;;;;1.63;0.98;;;;;;;31.95;29.06;99002.53;5024938;28;20096;-63
2022/07/16 11:08:56;;;;;;;1.80;1.05;;;;;;;31.43;26.31;98996.09;5011833;28;20363;-63
2022/07/16 11:11:41;;;;;;;2.20;1.00;;;;;;;31.25;27.44;98992.44;5000142;28;20065;-63
2022/07/16 11:14:30;;;;;;;1.13;0.80;;;;;;;32.97;29.77;98979.38;5012337;28;20034;-63
2022/07/16 11:17:16;;;;;;;1.40;1.00;;;;;;;31.76;27.09;98980.25;4997562;28;20045;-63
2022/07/16 11:20:05;;;;;;;3.63;1.25;;;;;;;30.31;27.09;98992.91;5005779;28;20045;-63
2022/07/16 11:23:03;;;;;;;1.88;0.90;;;;;;;31.30;27.88;98984.44;5024733;28;20069;-63
2022/07/16 11:26:00;;;;;;;2.90;0.88;;;;;;;31.82;26.22;98982.81;5011948;28;20052;-63
2022/07/16 11:28:51;;;;;;;1.70;1.10;;;;;;;29.77;29.69;98971.97;5011034;28;20045;-64
2022/07/16 11:31:36;;;;;;;;;;;;;;;30.01;28.30;98969.41;4986157;28;1139323;-63
2022/07/16 11:34:22;;;;;;;2.58;1.20;;;;;;;30.26;30.47;98983.84;5012760;28;19985;-63
2022/07/16 11:37:07;;;;;;;2.42;1.08;;;;;;;30.76;27.74;98977.25;4986039;28;20041;-63
2022/07/16 11:39:58;;;;;;;2.28;1.17;;;;;;;31.94;26.07;98977.34;5012559;28;20486;-63
2022/07/16 11:42:43;;;;;;;2.30;1.05;;;;;;;32.34;26.22;98974.84;5012982;28;20046;-63
2022/07/16 11:45:28;;;;;;;2.25;1.02;;;;;;;31.52;26.81;98974.88;5011330;28;20470;-63
2022/07/16 11:48:17;;;;;;;1.95;0.88;;;;;;;29.76;30.65;98983.84;5025622;28;20099;-62
2022/07/16 11:51:06;;;;;;;3.17;1.17;;;;;;;29.69;28.07;98975.03;5010537;28;20040;-63
2022/07/16 11:53:55;;;;;;;2.55;1.30;;;;;;;31.42;26.32;98962.00;5013936;28;20093;-63
2022/07/16 11:56:41;;;;;;;4.40;1.00;;;;;;;31.50;25.09;98974.31;5002922;28;20053;-63
2022/07/16 11:59:28;;;;;;;1.35;0.90;;;;;;;32.33;24.56;98965.88;5012007;28;20034;-63
2022/07/16 12:02:18;;;;;;;1.88;0.93;;;;;;;32.86;24.14;98964.84;5011764;28;20033;-64
2022/07/16 12:05:03;;;;;;;1.58;0.90;;;;;;;31.05;29.34;98961.19;5002101;28;20108;-63
2022/07/16 12:07:48;;;;;;;2.38;0.95;;;;;;;32.59;28.23;98973.66;5011676;28;20447;-63
2022/07/16 12:10:33;;;;;;;1.58;0.80;;;;;;;32.42;25.45;98973.59;5012564;28;20042;-63
2022/07/16 12:13:18;;;;;;;2.13;0.98;;;;;;;31.08;24.81;98959.88;4998924;28;20029;-63
2022/07/16 12:16:02;;;;;;;1.67;0.90;;;;;;;31.79;29.35;98964.34;5012065;28;20038;-63
2022/07/16 12:19:14;;;;;;;1.90;1.02;;;;;;;30.78;26.67;98971.59;5011612;28;20093;-63
2022/07/16 12:21:58;;;;;;;3.22;0.90;;;;;;;30.45;29.21;98968.38;5000359;28;20066;-63
2022/07/16 12:24:43;;;;;;;1.50;0.85;;;;;;;32.47;25.93;98968.28;5026035;28;20038;-64
2022/07/16 12:27:47;;;;;;;2.55;1.08;;;;;;;32.45;26.45;98970.41;5011017;28;20117;-63
2022/07/16 12:30:39;;;;;;;3.22;1.23;;;;;;;32.16;25.70;98971.28;5000814;28;20053;-63
2022/07/16 12:33:28;;;;;;;3.88;1.10;;;;;;;30.61;26.10;98978.53;5012684;28;20152;-64
2022/07/16 12:36:13;;;;;;;3.38;1.05;;;;;;;28.64;30.09;98979.09;5010871;28;20038;-63
2022/07/16 12:39:02;;;;;;;1.60;0.90;;;;;;;29.67;30.31;98991.44;5011947;28;20050;-63
2022/07/16 12:41:47;;;;;;;2.75;1.00;;;;;;;31.57;26.85;98983.13;5015619;28;20033;-63
2022/07/16 12:44:31;;;;;;;1.60;0.85;;;;;;;31.51;26.44;98981.38;5024443;28;20033;-63
2022/07/16 12:47:16;;;;;;;1.20;1.00;;;;;;;31.28;26.63;98977.59;5013130;28;20049;-63
2022/07/16 12:50:01;;;;;;;1.58;0.90;;;;;;;30.78;27.74;98975.16;5012287;28;20053;-64
2022/07/16 12:52:45;;;;;;;1.23;0.80;;;;;;;30.53;28.74;98975.31;5011980;28;20065;-63
2022/07/16 12:58:51;;;;;;;1.63;0.93;;;;;;;28.59;30.37;98973.53;5048886;28;20068;-62
2022/07/16 13:01:36;;;;;;;4.95;1.05;;;;;;;28.56;32.14;98976.66;4972300;28;20126;-63
2022/07/16 13:04:22;;;;;;;1.35;0.85;;;;;;;29.00;29.44;98979.44;5009681;28;20414;-63
2022/07/16 13:07:06;;;;;;;3.33;0.90;;;;;;;28.11;30.11;98981.88;5010742;28;20045;-64
2022/07/16 13:09:53;;;;;;;2.33;1.08;;;;;;;27.55;31.97;98978.78;5010759;28;20046;-64
2022/07/16 13:12:37;;;;;;;1.95;1.10;;;;;;;28.31;33.52;98974.72;4996109;28;20103;-63
2022/07/16 13:15:22;;;;;;;1.77;1.00;;;;;;;27.84;33.57;98978.50;5010998;28;20042;-64
2022/07/16 13:18:07;;;;;;;2.65;1.10;;;;;;;27.53;33.83;98978.19;5010764;28;20042;-64